Time;durP1;ratioP1;P1;durP2;ratioP2;P2;SDS_P1;SDS_P2;PMS_P1;PMS_P2;Temp;Humidity;BMP_temperature;BMP_pressure;BME280_temperature;BME280_humidity;BME280_pressure;Samples;Min_cycle;Max_cycle;Signal;HPM_P1;HPM_P2
2021/04/09 00:02:32;;;;;;;;;;;6.60;70.10;;;;;;4289780;33;20049;-75
2021/04/09 00:05:09;;;;;;;;;;;6.60;70.20;;;;;;4301993;33;25453;-75
2021/04/09 00:07:44;;;;;;;;;;;6.50;70.20;;;;;;4289543;33;20013;-75
2021/04/09 00:10:22;;;;;;;;;;;6.50;70.20;;;;;;4289129;33;20059;-75
2021/04/09 00:12:54;;;;;;;;;;;6.40;70.40;;;;;;4289910;33;20014;-76
2021/04/09 00:15:33;;;;;;;;;;;6.40;70.60;;;;;;4296238;33;19998;-76
2021/04/09 00:18:03;;;;;;;;;;;6.30;70.60;;;;;;4300739;33;44709;-76
2021/04/09 00:20:35;;;;;;;;;;;6.30;70.80;;;;;;4288826;33;23688;-76
2021/04/09 00:23:09;;;;;;;;;;;6.30;70.90;;;;;;4301810;33;25937;-76
2021/04/09 00:25:45;;;;;;;;;;;6.30;70.90;;;;;;4277563;33;20046;-76
2021/04/09 00:28:17;;;;;;;;;;;6.30;71.10;;;;;;4288937;33;37198;-76
2021/04/09 00:30:55;;;;;;;;;;;6.20;71.10;;;;;;4302610;33;20371;-76
2021/04/09 00:33:35;;;;;;;;;;;6.20;71.20;;;;;;4276647;33;43861;-76
2021/04/09 00:36:04;;;;;;;;;;;6.10;71.30;;;;;;4301929;33;27359;-76
2021/04/09 00:38:45;;;;;;;;;;;6.10;71.30;;;;;;4302993;33;20010;-76
2021/04/09 00:41:24;;;;;;;;;;;6.10;71.40;;;;;;4301733;33;31971;-76
2021/04/09 00:43:53;;;;;;;;;;;6.10;71.40;;;;;;4300589;33;36060;-76
2021/04/09 00:46:23;;;;;;;;;;;6.10;71.40;;;;;;4277185;33;23132;-76
2021/04/09 00:49:01;;;;;;;;;;;6.10;71.40;;;;;;4288243;33;46755;-76
2021/04/09 00:51:35;;;;;;;;;;;6.10;71.40;;;;;;4276764;33;20587;-76
2021/04/09 00:54:10;;;;;;;;;;;6.10;71.40;;;;;;4289322;33;20054;-76
2021/04/09 00:56:42;;;;;;;;;;;6.10;71.50;;;;;;4301874;33;28524;-76
2021/04/09 00:59:14;;;;;;;;;;;6.10;71.60;;;;;;4302822;33;20054;-76
2021/04/09 01:01:51;;;;;;;;;;;6.00;71.50;;;;;;4305064;33;20020;-76
2021/04/09 01:04:23;;;;;;;;;;;6.10;71.50;;;;;;4304297;33;36856;-76
2021/04/09 01:06:59;;;;;;;;;;;6.10;71.50;;;;;;4305000;33;20014;-76
2021/04/09 01:09:35;;;;;;;;;;;6.00;71.50;;;;;;4290898;33;35507;-76
2021/04/09 01:12:10;;;;;;;;;;;6.00;71.70;;;;;;4305241;33;20101;-76
2021/04/09 01:14:42;;;;;;;;;;;6.00;71.70;;;;;;4290965;33;35396;-76
2021/04/09 01:17:21;;;;;;;;;;;6.00;71.70;;;;;;4291914;33;20428;-76
2021/04/09 01:20:10;;;;;;;;;;;5.90;71.60;;;;;;4291438;33;20036;-76
2021/04/09 01:22:53;;;;;;;;;;;5.90;71.70;;;;;;4279630;33;20013;-76
2021/04/09 01:25:39;;;;;;;;;;;5.90;71.70;;;;;;4305048;33;20022;-76
2021/04/09 01:28:21;;;;;;;;;;;5.90;71.70;;;;;;4305036;33;20032;-76
2021/04/09 01:30:56;;;;;;;;;;;5.90;71.70;;;;;;4280139;33;20395;-75
2021/04/09 01:33:49;;;;;;;;;;;5.90;71.70;;;;;;4280063;33;19998;-76
2021/04/09 01:36:31;;;;;;;;;;;5.90;71.80;;;;;;4287674;33;19998;-76
2021/04/09 01:39:32;;;;;;;;;;;5.90;71.80;;;;;;4303636;33;20011;-76
2021/04/09 01:42:09;;;;;;;;;;;5.90;71.80;;;;;;4303360;33;20037;-76
2021/04/09 01:44:50;;;;;;;;;;;5.90;71.90;;;;;;4304999;33;20020;-76
2021/04/09 01:47:26;;;;;;;;;;;5.90;72.00;;;;;;4303711;33;20479;-76
2021/04/09 01:49:59;;;;;;;;;;;5.90;71.90;;;;;;4291716;33;20073;-76
2021/04/09 01:52:37;;;;;;;;;;;5.90;71.90;;;;;;4303785;33;20065;-76
2021/04/09 01:55:24;;;;;;;;;;;5.90;71.90;;;;;;4279682;33;19994;-75
2021/04/09 01:57:58;;;;;;;;;;;5.90;71.80;;;;;;4279097;33;20050;-76
2021/04/09 02:00:33;;;;;;;;;;;5.90;71.80;;;;;;4279718;33;19998;-76
2021/04/09 02:03:03;;;;;;;;;;;5.90;71.80;;;;;;4291142;33;20062;-76
2021/04/09 02:05:41;;;;;;;;;;;5.90;71.90;;;;;;4279423;33;20033;-76
2021/04/09 02:08:13;;;;;;;;;;;5.80;72.00;;;;;;4304470;33;20109;-76
2021/04/09 02:10:52;;;;;;;;;;;5.90;72.10;;;;;;4302949;33;20021;-76
2021/04/09 02:13:31;;;;;;;;;;;5.90;72.00;;;;;;4279212;33;20002;-76
2021/04/09 02:16:14;;;;;;;;;;;5.90;72.00;;;;;;4279428;33;19995;-76
2021/04/09 02:18:55;;;;;;;;;;;5.90;71.90;;;;;;4279588;33;20013;-76
2021/04/09 02:21:42;;;;;;;;;;;5.90;72.00;;;;;;4303392;33;20050;-76
2021/04/09 02:24:22;;;;;;;;;;;5.90;72.00;;;;;;4291753;33;20047;-76
2021/04/09 02:27:03;;;;;;;;;;;5.90;72.00;;;;;;4290651;33;20013;-75
2021/04/09 02:29:49;;;;;;;;;;;5.90;72.10;;;;;;4291454;33;20096;-75
2021/04/09 02:32:24;;;;;;;;;;;5.90;72.20;;;;;;4290995;33;20033;-75
2021/04/09 02:35:05;;;;;;;;;;;5.80;72.30;;;;;;4279028;33;20408;-75
2021/04/09 02:37:45;;;;;;;;;;;5.80;72.40;;;;;;4290756;33;20044;-74
2021/04/09 02:40:20;;;;;;;;;;;5.80;72.60;;;;;;4290901;33;20057;-75
2021/04/09 02:43:01;;;;;;;;;;;5.80;72.60;;;;;;4290204;33;20057;-75
2021/04/09 02:45:39;;;;;;;;;;;5.80;72.40;;;;;;4278449;33;20002;-75
2021/04/09 02:48:18;;;;;;;;;;;5.80;72.50;;;;;;4289924;33;35470;-75
2021/04/09 02:50:55;;;;;;;;;;;5.80;72.50;;;;;;4303282;33;33303;-75
2021/04/09 02:53:29;;;;;;;;;;;5.80;72.60;;;;;;4289587;33;39383;-75
2021/04/09 02:55:59;;;;;;;;;;;5.80;72.60;;;;;;4302515;33;45859;-75
2021/04/09 02:58:27;;;;;;;;;;;5.80;72.60;;;;;;4301727;33;35863;-76
2021/04/09 03:00:56;;;;;;;;;;;5.80;72.60;;;;;;4289185;33;40190;-75
2021/04/09 03:03:29;;;;;;;;;;;5.80;72.50;;;;;;4300960;33;44292;-75
2021/04/09 03:06:07;;;;;;;;;;;5.80;72.60;;;;;;4277847;33;31082;-75
2021/04/09 03:08:37;;;;;;;;;;;5.80;72.80;;;;;;4277515;33;36299;-75
2021/04/09 03:11:12;;;;;;;;;;;5.80;72.40;;;;;;4288631;33;45114;-75
2021/04/09 03:13:47;;;;;;;;;;;5.80;72.40;;;;;;4303126;33;20014;-75
2021/04/09 03:16:21;;;;;;;;;;;5.80;72.40;;;;;;4289241;33;23121;-75
2021/04/09 03:18:58;;;;;;;;;;;5.80;72.40;;;;;;4289266;33;42637;-75
2021/04/09 03:21:27;;;;;;;;;;;5.80;72.40;;;;;;4290104;33;19994;-75
2021/04/09 03:24:02;;;;;;;;;;;5.80;72.40;;;;;;4277269;33;27741;-75
2021/04/09 03:26:34;;;;;;;;;;;5.80;72.30;;;;;;4278198;33;20012;-75
2021/04/09 03:29:07;;;;;;;;;;;5.80;72.30;;;;;;4302121;33;20002;-75
2021/04/09 03:31:42;;;;;;;;;;;5.80;72.40;;;;;;4289117;33;33681;-75
2021/04/09 03:34:20;;;;;;;;;;;5.80;72.20;;;;;;4290036;33;20396;-74
2021/04/09 03:36:52;;;;;;;;;;;5.80;72.40;;;;;;4289008;33;43254;-75
2021/04/09 03:39:28;;;;;;;;;;;5.80;72.40;;;;;;4288965;33;44002;-75
2021/04/09 03:42:00;;;;;;;;;;;5.80;72.40;;;;;;4290338;33;20474;-75
2021/04/09 03:44:30;;;;;;;;;;;5.80;73.20;;;;;;4290012;33;20114;-75
2021/04/09 03:47:03;;;;;;;;;;;5.80;72.50;;;;;;4288710;33;34481;-75
2021/04/09 03:49:39;;;;;;;;;;;5.80;72.50;;;;;;4288719;33;33502;-75
2021/04/09 03:52:11;;;;;;;;;;;5.80;72.50;;;;;;4288925;33;36512;-75
2021/04/09 03:54:41;;;;;;;;;;;5.70;72.50;;;;;;4288606;33;40188;-75
2021/04/09 03:57:18;;;;;;;;;;;5.70;72.50;;;;;;4289643;33;20009;-75
2021/04/09 03:59:54;;;;;;;;;;;5.70;72.50;;;;;;4302794;33;20029;-75
2021/04/09 04:02:23;;;;;;;;;;;5.70;72.50;;;;;;4276970;33;29759;-75
2021/04/09 04:05:01;;;;;;;;;;;5.70;72.60;;;;;;4277501;33;20028;-75
2021/04/09 04:07:33;;;;;;;;;;;5.70;72.50;;;;;;4276720;33;33075;-75
2021/04/09 04:10:05;;;;;;;;;;;5.70;72.50;;;;;;4303131;33;20014;-75
2021/04/09 04:12:38;;;;;;;;;;;5.70;72.50;;;;;;4302592;33;20024;-75
2021/04/09 04:15:07;;;;;;;;;;;5.70;72.50;;;;;;4301574;33;44848;-75
2021/04/09 04:17:40;;;;;;;;;;;5.70;72.40;;;;;;4301586;33;34128;-75
2021/04/09 04:20:13;;;;;;;;;;;5.70;72.40;;;;;;4299599;33;36333;-75
2021/04/09 04:22:49;;;;;;;;;;;5.70;72.30;;;;;;4303039;33;20047;-75
2021/04/09 04:25:19;;;;;;;;;;;5.80;72.40;;;;;;4288761;33;25070;-75
2021/04/09 04:27:55;;;;;;;;;;;5.80;72.40;;;;;;4301276;33;41853;-75
2021/04/09 04:30:28;;;;;;;;;;;5.80;72.30;;;;;;4302761;33;20006;-75
2021/04/09 04:33:02;;;;;;;;;;;5.80;72.30;;;;;;4302237;33;20013;-75
2021/04/09 04:35:37;;;;;;;;;;;5.80;72.30;;;;;;4302712;33;39107;-75
2021/04/09 04:38:09;;;;;;;;;;;5.80;72.30;;;;;;4291044;33;41703;-75
2021/04/09 04:40:44;;;;;;;;;;;5.90;72.30;;;;;;4292428;33;20458;-75
2021/04/09 04:43:14;;;;;;;;;;;5.90;72.30;;;;;;4291312;33;43627;-75
2021/04/09 04:45:47;;;;;;;;;;;5.90;72.40;;;;;;4291356;33;28353;-75
2021/04/09 04:48:16;;;;;;;;;;;5.90;72.40;;;;;;4292414;33;20321;-75
2021/04/09 04:50:46;;;;;;;;;;;5.90;72.40;;;;;;4291639;33;21482;-75
2021/04/09 04:53:23;;;;;;;;;;;5.90;72.30;;;;;;4291690;33;20053;-75
2021/04/09 04:55:52;;;;;;;;;;;5.90;72.30;;;;;;4304927;33;33516;-75
2021/04/09 04:58:25;;;;;;;;;;;5.90;72.40;;;;;;4290692;33;43672;-75
2021/04/09 05:00:57;;;;;;;;;;;5.90;72.40;;;;;;4305358;33;20010;-75
2021/04/09 05:03:34;;;;;;;;;;;5.90;72.30;;;;;;4291978;33;20025;-75
2021/04/09 05:06:09;;;;;;;;;;;5.90;72.30;;;;;;4303019;33;44996;-75
2021/04/09 05:08:42;;;;;;;;;;;5.90;72.40;;;;;;4291427;33;39863;-75
2021/04/09 05:11:17;;;;;;;;;;;6.00;72.40;;;;;;4305302;33;20020;-75
2021/04/09 05:13:50;;;;;;;;;;;5.90;72.30;;;;;;4278885;33;40022;-75
2021/04/09 05:16:23;;;;;;;;;;;5.90;72.40;;;;;;4304396;33;27465;-75
2021/04/09 05:18:55;;;;;;;;;;;5.90;72.40;;;;;;4290429;33;43391;-75
2021/04/09 05:21:33;;;;;;;;;;;6.00;72.50;;;;;;4304064;33;42173;-75
2021/04/09 05:24:06;;;;;;;;;;;6.00;72.50;;;;;;4278576;33;43926;-75
2021/04/09 05:26:37;;;;;;;;;;;6.00;72.60;;;;;;4303337;33;40016;-75
2021/04/09 05:29:12;;;;;;;;;;;5.90;72.60;;;;;;4290993;33;38340;-75
2021/04/09 05:31:45;;;;;;;;;;;6.00;72.60;;;;;;4291883;33;20033;-75
2021/04/09 05:34:17;;;;;;;;;;;6.00;72.60;;;;;;4279304;33;23945;-75
2021/04/09 05:36:50;;;;;;;;;;;6.00;72.80;;;;;;4290101;33;43553;-75
2021/04/09 05:39:21;;;;;;;;;;;6.00;72.60;;;;;;4303416;33;42708;-75
2021/04/09 05:41:57;;;;;;;;;;;6.00;72.70;;;;;;4305265;33;20091;-75
2021/04/09 05:44:34;;;;;;;;;;;6.10;72.80;;;;;;4285967;33;43530;-75
2021/04/09 05:47:08;;;;;;;;;;;6.00;72.80;;;;;;4289895;33;30474;-75
2021/04/09 05:49:41;;;;;;;;;;;6.00;72.80;;;;;;4290680;33;44259;-75
2021/04/09 05:52:15;;;;;;;;;;;6.10;72.90;;;;;;4304045;33;24747;-75
2021/04/09 05:54:45;;;;;;;;;;;6.00;72.80;;;;;;4303516;33;42742;-75
2021/04/09 05:57:26;;;;;;;;;;;6.00;72.90;;;;;;4291389;33;20450;-75
2021/04/09 06:00:01;;;;;;;;;;;6.10;73.00;;;;;;4291419;33;20451;-75
2021/04/09 06:02:38;;;;;;;;;;;6.00;73.00;;;;;;4303159;33;39595;-75
2021/04/09 06:05:07;;;;;;;;;;;6.00;72.90;;;;;;4278338;33;32076;-75
2021/04/09 06:07:45;;;;;;;;;;;6.00;73.00;;;;;;4291154;33;20009;-75
2021/04/09 06:10:17;;;;;;;;;;;6.10;73.10;;;;;;4290620;33;30551;-75
2021/04/09 06:12:50;;;;;;;;;;;6.00;73.00;;;;;;4303365;33;20014;-75
2021/04/09 06:15:26;;;;;;;;;;;6.10;73.00;;;;;;4274253;33;20037;-75
2021/04/09 06:18:01;;;;;;;;;;;6.10;73.00;;;;;;4291210;33;20054;-75
2021/04/09 06:20:33;;;;;;;;;;;6.10;73.00;;;;;;4277854;33;43585;-75
2021/04/09 06:23:08;;;;;;;;;;;6.10;73.00;;;;;;4303262;33;38119;-75
2021/04/09 06:25:37;;;;;;;;;;;6.10;72.90;;;;;;4290151;33;39193;-75
2021/04/09 06:28:18;;;;;;;;;;;6.10;72.90;;;;;;4304247;33;20018;-75
2021/04/09 06:30:50;;;;;;;;;;;6.10;73.00;;;;;;4290960;33;20061;-75
2021/04/09 06:33:21;;;;;;;;;;;6.10;73.00;;;;;;4291029;33;20129;-75
2021/04/09 06:35:53;;;;;;;;;;;6.20;73.10;;;;;;4291043;33;20116;-75
2021/04/09 06:38:25;;;;;;;;;;;6.20;73.20;;;;;;4303039;33;20007;-75
2021/04/09 06:41:00;;;;;;;;;;;6.20;73.10;;;;;;4302522;33;20472;-75
2021/04/09 06:43:32;;;;;;;;;;;6.20;73.10;;;;;;4301630;33;43322;-75
2021/04/09 06:46:03;;;;;;;;;;;6.30;73.30;;;;;;4303112;33;34662;-75
2021/04/09 06:48:35;;;;;;;;;;;6.30;73.20;;;;;;4302743;33;43632;-75
2021/04/09 06:51:18;;;;;;;;;;;6.30;73.20;;;;;;4303852;33;20010;-75
2021/04/09 06:53:48;;;;;;;;;;;6.40;73.10;;;;;;4277533;33;42671;-75
2021/04/09 06:56:23;;;;;;;;;;;6.40;73.10;;;;;;4278327;33;20022;-75
2021/04/09 06:58:56;;;;;;;;;;;6.40;73.00;;;;;;4290301;33;20003;-75
2021/04/09 07:01:26;;;;;;;;;;;6.50;73.00;;;;;;4290918;33;20018;-75
2021/04/09 07:03:56;;;;;;;;;;;6.50;73.00;;;;;;4303297;33;20030;-74
2021/04/09 07:06:34;;;;;;;;;;;6.60;72.90;;;;;;4303685;33;20065;-75
2021/04/09 07:09:06;;;;;;;;;;;6.60;73.00;;;;;;4289837;33;23265;-75
2021/04/09 07:11:48;;;;;;;;;;;6.70;73.10;;;;;;4302229;33;41681;-75
2021/04/09 07:14:17;;;;;;;;;;;6.70;72.90;;;;;;4288896;33;45261;-75
2021/04/09 07:17:03;;;;;;;;;;;6.70;72.80;;;;;;4302821;33;29160;-75
2021/04/09 07:19:47;;;;;;;;;;;6.80;72.80;;;;;;4289107;33;39935;-75
2021/04/09 07:22:13;;;;;;;;;;;6.90;72.70;;;;;;4302992;33;20010;-75
2021/04/09 07:25:03;;;;;;;;;;;6.90;72.60;;;;;;4301877;33;39267;-75
2021/04/09 07:27:30;;;;;;;;;;;6.90;72.60;;;;;;4301077;33;43632;-75
2021/04/09 07:30:02;;;;;;;;;;;7.00;72.70;;;;;;4289424;33;29839;-75
2021/04/09 07:32:34;;;;;;;;;;;7.00;72.50;;;;;;4278208;33;19994;-75
2021/04/09 07:35:06;;;;;;;;;;;7.00;72.30;;;;;;4301484;33;28566;-75
2021/04/09 07:37:55;;;;;;;;;;;7.10;73.20;;;;;;4303471;33;20006;-75
2021/04/09 07:40:27;;;;;;;;;;;7.10;72.50;;;;;;4300976;33;45028;-75
2021/04/09 07:42:58;;;;;;;;;;;7.10;72.50;;;;;;4302945;33;20088;-75
2021/04/09 07:45:28;;;;;;;;;;;7.20;72.60;;;;;;4289598;33;20012;-75
2021/04/09 07:48:09;;;;;;;;;;;7.20;72.50;;;;;;4289928;33;20018;-75
2021/04/09 07:50:51;;;;;;;;;;;7.30;72.60;;;;;;4289028;33;34713;-75
2021/04/09 07:53:40;;;;;;;;;;;7.30;72.50;;;;;;4300948;33;37181;-75
2021/04/09 07:56:13;;;;;;;;;;;7.30;72.50;;;;;;4300815;33;44860;-75
2021/04/09 07:58:46;;;;;;;;;;;7.40;72.60;;;;;;4301909;33;45189;-75
2021/04/09 08:01:26;;;;;;;;;;;7.40;72.30;;;;;;4301843;33;42917;-75
2021/04/09 08:03:55;;;;;;;;;;;7.40;72.50;;;;;;4301409;33;44444;-75
2021/04/09 08:06:37;;;;;;;;;;;7.50;72.60;;;;;;4277657;33;19998;-75
2021/04/09 08:09:13;;;;;;;;;;;7.50;72.50;;;;;;4289331;33;20058;-74
2021/04/09 08:11:49;;;;;;;;;;;7.50;72.50;;;;;;4297440;33;27828;-75
2021/04/09 08:14:27;;;;;;;;;;;7.60;72.50;;;;;;4288533;33;45351;-75
2021/04/09 08:17:09;;;;;;;;;;;7.60;72.40;;;;;;4302601;33;20018;-75
2021/04/09 08:19:44;;;;;;;;;;;7.60;72.40;;;;;;4289857;33;20011;-75
2021/04/09 08:22:17;;;;;;;;;;;7.70;72.50;;;;;;4301947;33;33845;-75
2021/04/09 08:24:52;;;;;;;;;;;7.70;72.30;;;;;;4302081;33;41824;-75
2021/04/09 08:27:25;;;;;;;;;;;7.70;72.20;;;;;;4289093;33;41456;-75
2021/04/09 08:30:00;;;;;;;;;;;7.80;72.30;;;;;;4301357;33;43681;-75
2021/04/09 08:32:34;;;;;;;;;;;7.70;72.30;;;;;;4289034;33;20012;-75
2021/04/09 08:35:08;;;;;;;;;;;7.80;72.40;;;;;;4301002;33;25180;-75
2021/04/09 08:37:40;;;;;;;;;;;7.80;72.40;;;;;;4288573;33;43469;-75
2021/04/09 08:40:15;;;;;;;;;;;7.80;72.30;;;;;;4277614;33;20077;-75
2021/04/09 08:42:48;;;;;;;;;;;7.90;72.50;;;;;;4301356;33;42986;-75
2021/04/09 08:45:17;;;;;;;;;;;7.90;72.40;;;;;;4288192;33;42776;-75
2021/04/09 08:47:55;;;;;;;;;;;7.90;72.30;;;;;;4301031;33;39606;-75
2021/04/09 08:50:28;;;;;;;;;;;7.90;72.30;;;;;;4289086;33;20006;-75
2021/04/09 08:53:00;;;;;;;;;;;8.00;72.50;;;;;;4288407;33;38190;-75
2021/04/09 08:55:38;;;;;;;;;;;8.00;72.40;;;;;;4288525;33;26909;-75
2021/04/09 08:58:17;;;;;;;;;;;8.00;72.40;;;;;;4289225;33;20006;-75
2021/04/09 09:00:49;;;;;;;;;;;8.00;72.30;;;;;;4301617;33;20015;-75
2021/04/09 09:03:39;;;;;;;;;;;8.00;72.40;;;;;;4289132;33;20432;-75
2021/04/09 09:06:09;;;;;;;;;;;8.10;72.10;;;;;;4287863;33;42423;-75
2021/04/09 09:08:51;;;;;;;;;;;8.10;72.10;;;;;;4301945;33;20018;-75
2021/04/09 09:11:37;;;;;;;;;;;8.10;72.10;;;;;;4301578;33;33951;-75
2021/04/09 09:14:26;;;;;;;;;;;8.10;72.10;;;;;;4288900;33;20002;-75
2021/04/09 09:17:15;;;;;;;;;;;8.20;72.00;;;;;;4288728;33;20012;-75
2021/04/09 09:19:51;;;;;;;;;;;8.20;71.70;;;;;;4288728;33;20441;-75
2021/04/09 09:22:25;;;;;;;;;;;8.20;71.80;;;;;;4290691;33;44910;-75
2021/04/09 09:25:06;;;;;;;;;;;8.20;71.70;;;;;;4291022;33;27825;-75
2021/04/09 09:27:50;;;;;;;;;;;8.30;71.70;;;;;;4290260;33;45502;-75
2021/04/09 09:30:32;;;;;;;;;;;8.30;71.70;;;;;;4303714;33;36588;-75
2021/04/09 09:33:18;;;;;;;;;;;8.30;71.80;;;;;;4304793;33;20085;-75
2021/04/09 09:35:54;;;;;;;;;;;8.40;71.80;;;;;;4291780;33;20062;-75
2021/04/09 09:38:45;;;;;;;;;;;8.40;72.00;;;;;;4303721;33;45008;-75
2021/04/09 09:41:32;;;;;;;;;;;8.40;71.90;;;;;;4304912;33;20069;-75
2021/04/09 09:44:22;;;;;;;;;;;8.40;71.90;;;;;;4303525;33;44071;-75
2021/04/09 09:46:57;;;;;;;;;;;8.50;71.70;;;;;;4304355;33;20083;-76
2021/04/09 09:49:32;;;;;;;;;;;8.40;71.80;;;;;;4279097;33;19994;-75
2021/04/09 09:52:06;;;;;;;;;;;8.50;71.90;;;;;;4278056;33;45316;-76
2021/04/09 09:54:43;;;;;;;;;;;8.50;72.00;;;;;;4304723;33;20066;-76
2021/04/09 09:57:29;;;;;;;;;;;8.50;72.00;;;;;;4304886;33;20455;-76
2021/04/09 10:00:04;;;;;;;;;;;8.60;72.20;;;;;;4291563;33;20006;-76
2021/04/09 10:02:34;;;;;;;;;;;8.60;72.40;;;;;;4290929;33;20069;-76
2021/04/09 10:05:15;;;;;;;;;;;8.60;72.20;;;;;;4304795;33;20050;-76
2021/04/09 10:07:49;;;;;;;;;;;8.60;72.10;;;;;;4291506;33;20402;-75
2021/04/09 10:10:33;;;;;;;;;;;8.60;72.20;;;;;;4297968;33;20011;-75
2021/04/09 10:13:15;;;;;;;;;;;8.70;72.10;;;;;;4304444;33;20063;-76
2021/04/09 10:15:51;;;;;;;;;;;8.70;72.10;;;;;;4291013;33;20012;-76
2021/04/09 10:18:26;;;;;;;;;;;8.70;72.10;;;;;;4304425;33;20014;-76
2021/04/09 10:20:56;;;;;;;;;;;8.70;72.30;;;;;;4303252;33;20061;-76
2021/04/09 10:23:32;;;;;;;;;;;8.80;72.40;;;;;;4279536;33;19999;-76
2021/04/09 10:26:09;;;;;;;;;;;8.80;72.40;;;;;;4304287;33;20016;-76
2021/04/09 10:28:47;;;;;;;;;;;8.90;72.50;;;;;;4291368;33;20110;-76
2021/04/09 10:31:27;;;;;;;;;;;9.00;72.30;;;;;;4291157;33;20018;-76
2021/04/09 10:34:02;;;;;;;;;;;9.10;72.40;;;;;;4290405;33;20017;-76
2021/04/09 10:36:45;;;;;;;;;;;9.10;72.00;;;;;;4291175;33;20042;-76
2021/04/09 10:39:18;;;;;;;;;;;9.20;72.00;;;;;;4291194;33;20024;-76
2021/04/09 10:41:51;;;;;;;;;;;9.20;71.90;;;;;;4290896;33;19994;-76
2021/04/09 10:44:24;;;;;;;;;;;9.30;71.80;;;;;;4304094;33;20007;-76
2021/04/09 10:47:01;;;;;;;;;;;9.30;71.70;;;;;;4303440;33;20380;-76
2021/04/09 10:49:40;;;;;;;;;;;9.40;71.70;;;;;;4304147;33;20404;-77
2021/04/09 10:52:17;;;;;;;;;;;9.40;71.50;;;;;;4302926;33;20045;-76
2021/04/09 10:55:03;;;;;;;;;;;9.40;71.40;;;;;;4291120;33;20010;-76
2021/04/09 10:57:38;;;;;;;;;;;9.50;71.50;;;;;;4279285;33;20066;-76
2021/04/09 11:00:13;;;;;;;;;;;9.50;71.40;;;;;;4303632;33;20010;-76
2021/04/09 11:02:42;;;;;;;;;;;9.50;71.50;;;;;;4303599;33;20084;-76
2021/04/09 11:05:20;;;;;;;;;;;9.50;71.50;;;;;;4291064;33;20014;-76
2021/04/09 11:07:58;;;;;;;;;;;9.50;71.60;;;;;;4290682;33;20066;-76
2021/04/09 11:10:38;;;;;;;;;;;9.60;71.60;;;;;;4290391;33;20446;-77
2021/04/09 11:13:30;;;;;;;;;;;9.60;71.40;;;;;;4290529;33;20371;-77
2021/04/09 11:16:03;;;;;;;;;;;9.60;71.60;;;;;;4303493;33;20051;-77
2021/04/09 11:19:06;;;;;;;;;;;9.60;71.50;;;;;;4278474;33;20046;-76
2021/04/09 11:21:52;;;;;;;;;;;9.70;71.60;;;;;;4302595;33;20011;-77
2021/04/09 11:24:35;;;;;;;;;;;9.70;71.60;;;;;;4302419;33;20010;-76
2021/04/09 11:27:24;;;;;;;;;;;9.70;71.60;;;;;;4290511;33;20022;-77
2021/04/09 11:30:22;;;;;;;;;;;9.70;71.50;;;;;;4302169;33;20024;-76
2021/04/09 11:33:00;;;;;;;;;;;9.80;71.30;;;;;;4285988;33;20033;-77
2021/04/09 11:35:41;;;;;;;;;;;9.80;71.30;;;;;;4298481;33;20057;-77
2021/04/09 11:38:24;;;;;;;;;;;9.80;71.50;;;;;;4302281;33;20069;-76
2021/04/09 11:40:57;;;;;;;;;;;9.80;71.50;;;;;;4289825;33;20016;-76
2021/04/09 11:43:34;;;;;;;;;;;9.80;71.60;;;;;;4303437;33;20050;-77
2021/04/09 11:46:24;;;;;;;;;;;9.80;71.60;;;;;;4303516;33;20064;-77
2021/04/09 11:49:10;;;;;;;;;;;9.90;71.50;;;;;;4289219;33;20006;-77
2021/04/09 11:51:40;;;;;;;;;;;9.90;71.50;;;;;;4289907;33;20137;-76
2021/04/09 11:54:21;;;;;;;;;;;10.00;71.50;;;;;;4302726;33;20008;-76
2021/04/09 11:56:53;;;;;;;;;;;10.00;71.40;;;;;;4302914;33;20036;-76
2021/04/09 11:59:30;;;;;;;;;;;10.00;71.40;;;;;;4290146;33;20541;-77
2021/04/09 12:02:19;;;;;;;;;;;10.00;71.50;;;;;;4289572;33;20053;-77
2021/04/09 12:05:07;;;;;;;;;;;10.10;71.60;;;;;;4290087;33;20093;-76
2021/04/09 12:07:45;;;;;;;;;;;10.20;71.50;;;;;;4301864;33;20065;-76
2021/04/09 12:10:22;;;;;;;;;;;10.20;71.40;;;;;;4289895;33;20028;-77
2021/04/09 12:12:55;;;;;;;;;;;10.20;71.40;;;;;;4290189;33;20029;-77
2021/04/09 12:15:31;;;;;;;;;;;10.30;71.20;;;;;;4289611;33;20408;-77
2021/04/09 12:18:09;;;;;;;;;;;10.40;71.30;;;;;;4302932;33;20014;-76
2021/04/09 12:20:50;;;;;;;;;;;10.40;71.40;;;;;;4278187;33;20022;-77
2021/04/09 12:23:20;;;;;;;;;;;10.40;71.40;;;;;;4301859;33;20058;-77
2021/04/09 12:25:52;;;;;;;;;;;10.50;71.40;;;;;;4289874;33;20368;-76
2021/04/09 12:28:30;;;;;;;;;;;10.50;71.30;;;;;;4289537;33;20176;-77
2021/04/09 12:31:09;;;;;;;;;;;10.60;71.10;;;;;;4302861;33;20007;-77
2021/04/09 12:33:41;;;;;;;;;;;10.60;71.00;;;;;;4289308;33;20042;-77
2021/04/09 12:36:19;;;;;;;;;;;10.60;71.10;;;;;;4302684;33;20058;-76
2021/04/09 12:38:51;;;;;;;;;;;10.60;70.90;;;;;;4277699;33;20448;-76
2021/04/09 12:41:30;;;;;;;;;;;10.60;71.20;;;;;;4289898;33;20339;-77
2021/04/09 12:44:01;;;;;;;;;;;10.60;71.20;;;;;;4289701;33;20069;-77
2021/04/09 12:46:36;;;;;;;;;;;10.60;71.00;;;;;;4302742;33;20066;-77
2021/04/09 12:49:06;;;;;;;;;;;10.70;71.20;;;;;;4289795;33;20065;-77
2021/04/09 12:51:35;;;;;;;;;;;10.70;71.20;;;;;;4277523;33;19998;-77
2021/04/09 12:54:10;;;;;;;;;;;10.70;71.20;;;;;;4301363;33;42777;-77
2021/04/09 12:56:42;;;;;;;;;;;10.80;71.00;;;;;;4291267;33;20022;-77
2021/04/09 12:59:23;;;;;;;;;;;10.80;71.10;;;;;;4305179;33;20018;-76
2021/04/09 13:01:54;;;;;;;;;;;10.90;71.00;;;;;;4291220;33;41848;-76
2021/04/09 13:04:32;;;;;;;;;;;10.90;71.00;;;;;;4291180;33;44078;-76
2021/04/09 13:07:07;;;;;;;;;;;10.90;70.90;;;;;;4304151;33;20054;-76
2021/04/09 13:09:45;;;;;;;;;;;11.00;71.00;;;;;;4305392;33;20062;-76
2021/04/09 13:12:17;;;;;;;;;;;11.00;70.50;;;;;;4292122;33;20050;-76
2021/04/09 13:14:54;;;;;;;;;;;11.00;70.80;;;;;;4292087;33;20040;-76
2021/04/09 13:17:32;;;;;;;;;;;11.10;70.80;;;;;;4305173;33;20014;-77
2021/04/09 13:20:07;;;;;;;;;;;11.10;70.80;;;;;;4291412;33;25092;-76
2021/04/09 13:22:42;;;;;;;;;;;11.10;70.70;;;;;;4291843;33;20020;-76
2021/04/09 13:25:23;;;;;;;;;;;11.20;70.90;;;;;;4291534;33;32371;-76
2021/04/09 13:27:57;;;;;;;;;;;11.20;70.60;;;;;;4279193;33;30624;-76
2021/04/09 13:30:39;;;;;;;;;;;11.20;70.60;;;;;;4279988;33;20024;-76
2021/04/09 13:33:17;;;;;;;;;;;11.30;70.50;;;;;;4303317;33;22162;-76
2021/04/09 13:35:49;;;;;;;;;;;11.40;70.20;;;;;;4290619;33;31202;-76
2021/04/09 13:38:28;;;;;;;;;;;11.40;70.50;;;;;;4303528;33;25024;-77
2021/04/09 13:41:02;;;;;;;;;;;11.40;70.40;;;;;;4278458;33;40287;-76
2021/04/09 13:43:32;;;;;;;;;;;11.50;70.40;;;;;;4304103;33;30795;-76
2021/04/09 13:46:04;;;;;;;;;;;11.50;70.50;;;;;;4278918;33;25463;-76
2021/04/09 13:48:30;;;;;;;;;;;11.50;70.50;;;;;;4303669;33;40039;-76
2021/04/09 13:50:57;;;;;;;;;;;11.50;70.30;;;;;;4303536;33;44711;-76
2021/04/09 13:53:23;;;;;;;;;;;11.60;70.20;;;;;;4302078;33;42730;-76
2021/04/09 13:55:56;;;;;;;;;;;11.60;70.30;;;;;;4304232;33;20089;-76
2021/04/09 13:58:29;;;;;;;;;;;11.50;70.40;;;;;;4304810;33;20050;-76
2021/04/09 14:01:05;;;;;;;;;;;11.60;70.40;;;;;;4290916;33;43503;-77
2021/04/09 14:03:37;;;;;;;;;;;11.60;70.50;;;;;;4291107;33;20440;-77
2021/04/09 14:06:10;;;;;;;;;;;11.60;70.40;;;;;;4303172;33;44253;-76
2021/04/09 14:08:42;;;;;;;;;;;11.60;70.40;;;;;;4303760;33;20077;-76
2021/04/09 14:11:17;;;;;;;;;;;11.60;70.20;;;;;;4292011;33;20045;-76
2021/04/09 14:13:56;;;;;;;;;;;11.60;70.30;;;;;;4290768;33;43668;-76
2021/04/09 14:16:26;;;;;;;;;;;11.60;70.30;;;;;;4290240;33;31722;-76
2021/04/09 14:18:56;;;;;;;;;;;11.60;70.40;;;;;;4279379;33;20383;-76
2021/04/09 14:21:31;;;;;;;;;;;11.60;70.30;;;;;;4302403;33;39554;-76
2021/04/09 14:24:04;;;;;;;;;;;11.60;70.50;;;;;;4290103;33;43263;-77
2021/04/09 14:26:39;;;;;;;;;;;11.60;70.50;;;;;;4278757;33;20013;-76
2021/04/09 14:29:12;;;;;;;;;;;11.70;70.40;;;;;;4290502;33;24231;-76
2021/04/09 14:31:41;;;;;;;;;;;11.70;70.50;;;;;;4290748;33;20472;-76
2021/04/09 14:34:13;;;;;;;;;;;11.70;70.20;;;;;;4290436;33;37160;-76
2021/04/09 14:36:40;;;;;;;;;;;11.70;70.10;;;;;;4289408;33;38313;-76
2021/04/09 14:39:12;;;;;;;;;;;11.70;70.10;;;;;;4290863;33;20074;-76
2021/04/09 14:41:53;;;;;;;;;;;11.70;70.00;;;;;;4279641;33;20002;-76
2021/04/09 14:44:25;;;;;;;;;;;11.80;69.80;;;;;;4290913;33;20068;-76
2021/04/09 14:46:57;;;;;;;;;;;11.70;69.60;;;;;;4304074;33;20057;-76
2021/04/09 14:49:26;;;;;;;;;;;11.80;69.90;;;;;;4289433;33;39324;-76
2021/04/09 14:51:53;;;;;;;;;;;11.80;69.70;;;;;;4303043;33;35908;-77
2021/04/09 14:54:23;;;;;;;;;;;11.80;69.70;;;;;;4289943;33;37690;-77
2021/04/09 14:56:50;;;;;;;;;;;11.80;69.60;;;;;;4290628;33;20049;-76
2021/04/09 14:59:23;;;;;;;;;;;11.80;69.40;;;;;;4303925;33;20117;-76
2021/04/09 15:01:53;;;;;;;;;;;11.80;69.40;;;;;;4302203;33;43517;-77
2021/04/09 15:04:29;;;;;;;;;;;11.80;69.30;;;;;;4290571;33;20392;-77
2021/04/09 15:06:55;;;;;;;;;;;11.80;69.20;;;;;;4277961;33;24088;-76
2021/04/09 15:09:23;;;;;;;;;;;11.80;69.50;;;;;;4289188;33;40227;-77
2021/04/09 15:11:54;;;;;;;;;;;11.80;69.60;;;;;;4290374;33;20057;-76
2021/04/09 15:14:25;;;;;;;;;;;11.90;69.60;;;;;;4290492;33;20418;-76
2021/04/09 15:16:55;;;;;;;;;;;11.90;69.60;;;;;;4303535;33;20047;-76